KECP

Northwest Florida Beaches International Airport

Panama City, Florida, USA
KECP 200520Z 2006/2106 24012G20KT P6SM OVC025 FM200900 30012G20KT P6SM OVC025 FM201500 31015G20KT P6SM OVC070 FM201800 31015KT P6SM SKC
Issued Valid From Valid To
Jan-20 @ 05:20 UTC
(6 hours ago)
Jan-20 @ 06:00 UTC
(5 hours ago)
Jan-21 @ 06:00 UTC
(in 19 hours)
Expired Click to View Jan-20 @ 06:00 to Jan-20 @ 09:00
KECP 200520Z 2006/2106 24012G20KT P6SM OVC025
Wind Visibility Clouds
240° at 12 knots
 Gusting to 20 knots
Greater than 6 miles
  • Overcast at 2,500' AGL
From Jan-20 @ 09:00 to Jan-20 @ 15:00
FM200900 30012G20KT P6SM OVC025
Wind Visibility Clouds
300° at 12 knots
 Gusting to 20 knots
Greater than 6 miles
  • Overcast at 2,500' AGL
From Jan-20 @ 15:00 to Jan-20 @ 18:00
FM201500 31015G20KT P6SM OVC070
Wind Visibility Clouds
310° at 15 knots
 Gusting to 20 knots
Greater than 6 miles
  • Overcast at 7,000' AGL
From Jan-20 @ 18:00 to Jan-21 @ 06:00
FM201800 31015KT P6SM SKC
Wind Visibility Clouds
310° at 15 knots Greater than 6 miles
  • Clear skies
KECP 200520Z 2006/2106 24012G20KT P6SM OVC025 FM200900 30012G20KT P6SM OVC025 FM201500 31015G20KT P6SM OVC070 FM201800 31015KT P6SM SKC
Issued Jan-20 @ 05:20 UTC
(6 hours ago)
Valid From Jan-20 @ 06:00 UTC
(5 hours ago)
Valid To Jan-21 @ 06:00 UTC
(in 19 hours)
Jan-20 @ 06:00 - Jan-20 @ 09:00
Wind Visibility
240° at 12 knots
 Gusting to 20 knots
Greater than 6 miles
Clouds
  • Overcast at 2,500' AGL
From Jan-20 @ 09:00 - Jan-20 @ 15:00
Wind Visibility
300° at 12 knots
 Gusting to 20 knots
Greater than 6 miles
Clouds
  • Overcast at 2,500' AGL
From Jan-20 @ 15:00 - Jan-20 @ 18:00
Wind Visibility
310° at 15 knots
 Gusting to 20 knots
Greater than 6 miles
Clouds
  • Overcast at 7,000' AGL
From Jan-20 @ 18:00 - Jan-21 @ 06:00
Wind Visibility
310° at 15 knots Greater than 6 miles
Clouds
  • Clear skies